Epcot, Florida
Current Conditions -  °F | °C
As of 11:55 AM on Thursday 30 Oct 2014 (Local Time) from KISM Reporting Station
Scattered Clouds Scattered Clouds  
Wind Chill: 81°   Ceiling: Unl
Heat Index: 83°   Visibility: 10mi
Dew Point: 66°   Wind: 0mph
Humidity: 61%   Direction: NA
Pressure: 29.99"   Gusts: NA
Location:  28.37°N, 81.55°W
Report Text: KISM 301555Z 00000KT 10SM FEW032 FEW044 SCT120 27/19 A2999
Loading
Personal Weather Stations






























Interactive Weather Map
Tropical Storm Tracking
New forecast layout! Learn more

10-Day Weather Forecast

Advertisements
Track Severe Weather on mobile